Time;durP1;ratioP1;P1;durP2;ratioP2;P2;SDS_P1;SDS_P2;PMS_P1;PMS_P2;Temp;Humidity;BMP_temperature;BMP_pressure;BME280_temperature;BME280_humidity;BME280_pressure;Samples;Min_cycle;Max_cycle;Signal;HPM_P1;HPM_P2
2023/07/16 00:01:56;;;;;;;2.20;2.00;;;24.40;84.30;;;;;;5014020;28;20207;-66
2023/07/16 00:04:23;;;;;;;1.83;1.73;;;24.30;84.30;;;;;;5010081;28;20218;-66
2023/07/16 00:06:50;;;;;;;1.70;1.60;;;24.30;84.50;;;;;;5029450;28;20732;-66
2023/07/16 00:09:19;;;;;;;1.80;1.70;;;24.30;84.60;;;;;;5023950;28;20242;-66
2023/07/16 00:11:46;;;;;;;1.80;1.70;;;24.30;84.70;;;;;;5015370;28;21004;-65
2023/07/16 00:14:13;;;;;;;5.25;2.05;;;24.20;84.70;;;;;;5029428;28;20701;-66
2023/07/16 00:16:40;;;;;;;2.33;2.20;;;24.20;84.90;;;;;;5030403;28;20230;-66
2023/07/16 00:19:07;;;;;;;2.67;2.47;;;24.20;85.00;;;;;;5015197;28;20281;-66
2023/07/16 00:21:34;;;;;;;2.17;2.08;;;24.20;85.10;;;;;;5024428;28;20224;-66
2023/07/16 00:24:01;;;;;;;2.53;2.33;;;24.20;85.10;;;;;;5021563;28;20875;-65
2023/07/16 00:26:30;;;;;;;2.38;2.22;;;24.10;85.20;;;;;;5025776;28;20594;-65
2023/07/16 00:28:57;;;;;;;3.33;2.65;;;24.10;85.40;;;;;;5012534;28;20211;-65
2023/07/16 00:31:24;;;;;;;2.22;1.92;;;24.10;85.70;;;;;;5010134;28;20478;-66
2023/07/16 00:33:51;;;;;;;2.00;1.90;;;24.00;85.60;;;;;;5029327;28;20623;-66
2023/07/16 00:36:18;;;;;;;2.30;2.10;;;24.00;85.80;;;;;;5023647;28;20246;-66
2023/07/16 00:38:45;;;;;;;2.08;1.98;;;24.00;85.90;;;;;;5012805;28;20227;-66
2023/07/16 00:41:13;;;;;;;1.80;1.70;;;24.00;86.00;;;;;;5031052;28;20191;-66
2023/07/16 00:43:42;;;;;;;2.45;1.98;;;23.90;86.10;;;;;;5030241;28;20225;-66
2023/07/16 00:46:09;;;;;;;1.90;1.70;;;23.90;86.30;;;;;;5003004;28;20199;-66
2023/07/16 00:48:37;;;;;;;1.52;1.45;;;23.80;86.30;;;;;;5020428;28;20581;-66
2023/07/16 00:51:05;;;;;;;1.30;1.20;;;23.80;86.50;;;;;;5028882;28;20206;-67
2023/07/16 00:53:33;;;;;;;1.88;1.70;;;23.80;86.60;;;;;;5012216;28;20744;-68
2023/07/16 00:56:00;;;;;;;2.10;1.90;;;23.80;86.80;;;;;;5017151;28;20199;-66
2023/07/16 00:58:27;;;;;;;1.90;1.80;;;23.80;86.90;;;;;;5009591;28;20202;-66
2023/07/16 01:00:57;;;;;;;1.90;1.80;;;23.80;87.00;;;;;;5029822;28;20281;-66
2023/07/16 01:03:25;;;;;;;1.88;1.77;;;23.80;87.00;;;;;;5021789;28;20226;-66
2023/07/16 01:05:58;;;;;;;2.50;2.30;;;23.70;87.10;;;;;;5018387;28;20507;-65
2023/07/16 01:08:32;;;;;;;2.00;1.90;;;23.70;87.30;;;;;;5028864;28;20302;-66
2023/07/16 01:11:01;;;;;;;1.73;1.63;;;23.70;87.50;;;;;;5028329;28;20229;-66
2023/07/16 01:13:28;;;;;;;1.85;1.75;;;23.70;87.70;;;;;;5019590;28;20298;-67
2023/07/16 01:15:57;;;;;;;1.90;1.80;;;23.70;87.90;;;;;;5016853;28;20226;-67
2023/07/16 01:18:24;;;;;;;2.55;2.35;;;23.60;87.90;;;;;;5010667;28;20294;-67
2023/07/16 01:20:51;;;;;;;3.35;2.70;;;23.60;88.20;;;;;;5024493;28;20276;-67
2023/07/16 01:23:37;;;;;;;2.90;2.70;;;23.60;88.60;;;;;;5014969;28;20264;-66
2023/07/16 01:26:13;;;;;;;2.88;2.63;;;23.60;88.80;;;;;;5009932;28;20287;-66
2023/07/16 01:29:06;;;;;;;3.40;3.10;;;23.60;88.80;;;;;;5029734;28;20252;-66
2023/07/16 01:31:35;;;;;;;2.60;2.45;;;23.60;89.00;;;;;;5020088;28;20682;-66
2023/07/16 01:34:06;;;;;;;3.03;2.70;;;23.50;89.00;;;;;;5023702;28;20229;-67
2023/07/16 01:36:35;;;;;;;2.33;2.15;;;23.50;89.10;;;;;;5032465;28;20190;-66
2023/07/16 01:39:02;;;;;;;2.10;2.00;;;23.40;89.10;;;;;;5026793;28;20198;-67
2023/07/16 01:41:30;;;;;;;1.67;1.58;;;23.50;89.30;;;;;;5020944;28;20191;-65
2023/07/16 01:43:57;;;;;;;2.05;1.95;;;23.40;89.40;;;;;;5014725;28;20194;-66
2023/07/16 01:46:24;;;;;;;4.00;2.38;;;23.40;89.60;;;;;;5016341;28;20202;-66
2023/07/16 01:48:53;;;;;;;4.22;2.70;;;23.40;89.80;;;;;;5019377;28;20197;-67
2023/07/16 01:51:25;;;;;;;2.83;2.55;;;23.40;90.00;;;;;;5016821;28;20540;-67
2023/07/16 01:53:53;;;;;;;3.20;2.88;;;23.40;90.10;;;;;;5017372;28;20614;-67
2023/07/16 01:56:20;;;;;;;6.63;3.47;;;23.30;90.20;;;;;;5032067;28;20202;-66
2023/07/16 01:58:49;;;;;;;3.53;3.17;;;23.30;90.30;;;;;;5010694;28;20289;-65
2023/07/16 02:01:16;;;;;;;3.72;3.40;;;23.30;90.40;;;;;;5022933;28;20191;-66
2023/07/16 02:03:43;;;;;;;3.20;2.97;;;23.30;90.50;;;;;;5031562;28;20206;-67
2023/07/16 02:06:13;;;;;;;4.32;3.00;;;23.20;90.60;;;;;;5025092;28;20248;-66
2023/07/16 02:08:40;;;;;;;3.25;3.05;;;23.20;90.70;;;;;;5002093;28;20204;-66
2023/07/16 02:11:07;;;;;;;3.33;3.03;;;23.10;90.80;;;;;;4995818;28;20805;-67
2023/07/16 02:13:34;;;;;;;3.30;3.10;;;23.10;90.90;;;;;;5007603;28;20202;-68
2023/07/16 02:16:01;;;;;;;3.58;3.13;;;23.10;90.90;;;;;;5013349;28;20218;-67
2023/07/16 02:18:28;;;;;;;3.05;2.75;;;23.10;91.00;;;;;;5022095;28;20210;-66
2023/07/16 02:20:55;;;;;;;2.33;2.22;;;23.10;91.00;;;;;;5008603;28;20191;-67
2023/07/16 02:23:24;;;;;;;2.50;2.40;;;23.10;91.10;;;;;;5011572;28;20262;-66
2023/07/16 02:25:51;;;;;;;3.60;2.90;;;23.00;91.20;;;;;;5006772;28;20188;-66
2023/07/16 02:28:18;;;;;;;3.63;3.33;;;23.10;91.40;;;;;;4996631;28;20294;-66
2023/07/16 02:30:45;;;;;;;3.75;3.25;;;23.10;91.60;;;;;;4994902;28;20646;-66
2023/07/16 02:33:12;;;;;;;3.33;2.60;;;23.10;91.50;;;;;;5007170;28;20290;-67
2023/07/16 02:35:39;;;;;;;2.45;2.30;;;23.10;91.50;;;;;;5011248;28;20286;-67
2023/07/16 02:38:07;;;;;;;2.30;2.20;;;23.00;91.50;;;;;;5008420;28;20295;-67
2023/07/16 02:40:37;;;;;;;2.47;2.20;;;23.00;91.60;;;;;;5001857;28;20645;-67
2023/07/16 02:43:05;;;;;;;5.50;3.40;;;23.00;91.70;;;;;;5011860;28;20187;-66
2023/07/16 02:45:32;;;;;;;3.35;3.05;;;23.00;91.90;;;;;;5011395;28;20489;-67
2023/07/16 02:47:59;;;;;;;2.70;2.50;;;23.00;91.90;;;;;;4998076;28;20246;-66
2023/07/16 02:50:27;;;;;;;3.92;3.53;;;23.00;91.90;;;;;;4995869;28;20782;-66
2023/07/16 02:52:54;;;;;;;4.00;3.50;;;23.00;92.10;;;;;;4994362;28;20204;-67
2023/07/16 02:55:21;;;;;;;3.20;3.00;;;23.00;92.10;;;;;;4996213;28;20199;-66
2023/07/16 02:57:49;;;;;;;3.63;3.30;;;23.00;92.20;;;;;;5003916;28;20203;-66
2023/07/16 03:00:17;;;;;;;3.88;3.58;;;23.00;92.30;;;;;;5010447;28;20238;-67
2023/07/16 03:02:44;;;;;;;7.18;3.33;;;22.90;92.30;;;;;;5003842;28;20246;-67
2023/07/16 03:05:11;;;;;;;3.25;2.88;;;22.90;92.50;;;;;;4997667;28;20926;-67
2023/07/16 03:07:38;;;;;;;2.33;2.22;;;22.80;92.50;;;;;;5008724;28;20211;-67
2023/07/16 03:10:06;;;;;;;2.47;2.35;;;22.80;92.60;;;;;;5024393;28;20294;-66
2023/07/16 03:12:33;;;;;;;3.85;2.97;;;22.80;92.70;;;;;;5008322;28;20206;-66
2023/07/16 03:15:02;;;;;;;4.15;3.10;;;22.80;93.00;;;;;;5014911;28;20310;-65
2023/07/16 03:17:29;;;;;;;2.75;2.55;;;22.80;93.00;;;;;;5009622;28;20298;-65
2023/07/16 03:19:56;;;;;;;2.67;2.42;;;22.80;93.00;;;;;;5030627;28;20195;-66
2023/07/16 03:22:23;;;;;;;2.08;1.98;;;22.80;93.10;;;;;;5028222;28;20195;-66
2023/07/16 03:24:50;;;;;;;3.05;2.30;;;22.70;93.10;;;;;;5016228;28;20203;-66
2023/07/16 03:27:17;;;;;;;3.33;2.97;;;22.70;93.20;;;;;;5014236;28;20217;-66
2023/07/16 03:29:45;;;;;;;3.75;3.15;;;22.80;93.50;;;;;;4999066;28;20221;-66
2023/07/16 03:32:16;;;;;;;4.70;3.30;;;22.70;93.50;;;;;;5009208;28;20198;-67
2023/07/16 03:34:43;;;;;;;3.38;3.08;;;22.80;93.60;;;;;;5012802;28;20310;-67
2023/07/16 03:37:11;;;;;;;2.90;2.70;;;22.80;93.60;;;;;;5022780;28;20269;-67
2023/07/16 03:39:38;;;;;;;2.85;2.65;;;22.80;93.60;;;;;;5016464;28;20627;-65
2023/07/16 03:42:06;;;;;;;3.78;3.15;;;22.80;93.70;;;;;;5009632;28;20586;-66
2023/07/16 03:44:33;;;;;;;3.85;3.13;;;22.70;93.90;;;;;;5016532;28;20195;-67
2023/07/16 03:47:02;;;;;;;3.60;3.30;;;22.70;94.00;;;;;;5008364;28;20665;-67
2023/07/16 03:49:30;;;;;;;3.45;3.15;;;22.70;94.10;;;;;;5018693;28;20252;-67
2023/07/16 03:51:58;;;;;;;6.20;3.50;;;22.70;94.30;;;;;;5026874;28;20191;-67
2023/07/16 03:54:25;;;;;;;4.03;3.33;;;22.70;94.40;;;;;;5032030;28;20257;-66
2023/07/16 03:56:52;;;;;;;3.38;3.17;;;22.70;94.50;;;;;;5017865;28;20728;-66
2023/07/16 03:59:19;;;;;;;5.40;3.60;;;22.70;94.70;;;;;;5030516;28;20332;-67
2023/07/16 04:01:46;;;;;;;3.65;3.35;;;22.60;94.90;;;;;;5019348;28;20199;-67
2023/07/16 04:04:13;;;;;;;3.90;3.60;;;22.60;95.00;;;;;;5005340;28;20252;-67
2023/07/16 04:06:42;;;;;;;3.63;3.25;;;22.60;95.20;;;;;;4999478;28;20237;-66
2023/07/16 04:09:09;;;;;;;3.58;3.28;;;22.60;95.40;;;;;;5030898;28;20793;-66
2023/07/16 04:11:36;;;;;;;4.25;3.10;;;22.50;95.50;;;;;;5025806;28;20211;-67
2023/07/16 04:14:03;;;;;;;2.75;2.55;;;22.50;95.60;;;;;;5014151;28;20200;-66
2023/07/16 04:16:30;;;;;;;2.47;2.38;;;22.50;95.70;;;;;;5024479;28;20213;-67
2023/07/16 04:18:57;;;;;;;3.97;2.20;;;22.50;95.80;;;;;;5028940;28;20206;-67
2023/07/16 04:21:24;;;;;;;4.78;2.90;;;22.40;95.90;;;;;;5020649;28;20206;-67
2023/07/16 04:23:53;;;;;;;3.28;2.97;;;22.40;96.10;;;;;;5014461;28;20286;-67
2023/07/16 04:26:20;;;;;;;4.15;3.35;;;22.50;96.30;;;;;;5013781;28;20350;-66
2023/07/16 04:28:47;;;;;;;4.18;3.55;;;22.50;96.50;;;;;;5014573;28;20646;-66
2023/07/16 04:31:14;;;;;;;4.60;3.72;;;22.50;96.70;;;;;;5030209;28;20710;-66
2023/07/16 04:33:41;;;;;;;3.67;3.38;;;22.60;96.80;;;;;;5027162;28;20299;-66
2023/07/16 04:36:08;;;;;;;3.88;3.45;;;22.70;96.90;;;;;;5018256;28;20182;-66
2023/07/16 04:38:35;;;;;;;4.35;3.50;;;22.70;97.00;;;;;;5030181;28;20206;-67
2023/07/16 04:41:04;;;;;;;4.57;3.72;;;22.70;97.10;;;;;;5030997;28;20199;-66
2023/07/16 04:43:31;;;;;;;3.85;3.53;;;22.80;97.20;;;;;;5015862;28;20190;-65
2023/07/16 04:45:58;;;;;;;3.80;3.50;;;22.80;97.30;;;;;;5015516;28;20195;-67
2023/07/16 04:48:25;;;;;;;6.38;3.80;;;22.80;97.30;;;;;;5032131;28;20199;-66
2023/07/16 04:50:53;;;;;;;6.15;3.75;;;22.90;97.40;;;;;;5030491;28;20613;-66
2023/07/16 04:53:20;;;;;;;4.47;4.10;;;22.90;97.50;;;;;;5020580;28;21229;-67
2023/07/16 04:55:47;;;;;;;4.40;4.05;;;22.90;97.60;;;;;;4998886;28;20751;-66
2023/07/16 04:58:16;;;;;;;6.78;4.30;;;22.90;97.60;;;;;;5029563;28;20739;-66
2023/07/16 05:00:43;;;;;;;4.97;4.15;;;23.00;97.80;;;;;;5030534;28;20186;-66
2023/07/16 05:03:10;;;;;;;8.02;4.97;;;23.00;97.90;;;;;;5019408;28;20654;-66
2023/07/16 05:05:37;;;;;;;9.40;5.10;;;23.10;98.30;;;;;;5025879;28;20194;-67
2023/07/16 05:08:05;;;;;;;5.53;5.00;;;23.10;98.00;;;;;;5029508;28;20248;-66
2023/07/16 05:10:32;;;;;;;5.20;4.53;;;23.10;98.10;;;;;;5029782;28;20261;-65
2023/07/16 05:12:59;;;;;;;8.32;4.50;;;23.20;98.30;;;;;;4997693;28;20767;-66
2023/07/16 05:15:28;;;;;;;6.88;4.38;;;23.20;98.40;;;;;;5030528;28;20202;-66
2023/07/16 05:17:57;;;;;;;4.40;3.67;;;23.10;98.40;;;;;;5032281;28;20190;-67
2023/07/16 05:20:24;;;;;;;3.90;3.60;;;23.20;98.60;;;;;;5028829;28;21462;-66
2023/07/16 05:22:52;;;;;;;3.03;2.80;;;23.20;98.60;;;;;;5015407;28;20971;-68
2023/07/16 05:25:19;;;;;;;3.35;3.05;;;23.20;98.70;;;;;;5017405;28;20198;-65
2023/07/16 05:27:46;;;;;;;3.75;3.30;;;23.20;98.80;;;;;;5026945;28;20203;-66
2023/07/16 05:30:13;;;;;;;4.28;3.88;;;23.30;99.00;;;;;;5033810;28;20229;-67
2023/07/16 05:32:42;;;;;;;4.10;3.40;;;23.30;99.10;;;;;;5030672;28;20721;-67
2023/07/16 05:35:09;;;;;;;3.75;2.80;;;23.30;99.10;;;;;;5017281;28;20202;-67
2023/07/16 05:37:36;;;;;;;3.40;3.10;;;23.30;99.20;;;;;;5021583;28;20578;-67
2023/07/16 05:40:05;;;;;;;3.15;2.85;;;23.30;99.30;;;;;;5033511;28;20665;-66
2023/07/16 05:42:32;;;;;;;2.92;2.72;;;23.30;99.30;;;;;;5033498;28;20202;-67
2023/07/16 05:44:59;;;;;;;2.53;2.33;;;23.30;99.40;;;;;;5004788;28;20833;-66
2023/07/16 05:47:26;;;;;;;3.25;2.97;;;23.30;99.50;;;;;;5024538;28;20220;-66
2023/07/16 05:49:55;;;;;;;3.25;3.05;;;23.40;99.60;;;;;;5031795;28;20194;-68
2023/07/16 05:52:22;;;;;;;3.40;3.20;;;23.40;99.70;;;;;;5002516;28;20265;-67
2023/07/16 05:54:49;;;;;;;3.83;2.75;;;23.40;99.80;;;;;;5016882;28;20198;-67
2023/07/16 05:57:16;;;;;;;3.05;2.85;;;23.40;99.80;;;;;;5029658;28;20753;-67
2023/07/16 05:59:43;;;;;;;3.15;2.33;;;23.50;99.90;;;;;;5032920;28;20202;-67
2023/07/16 06:02:10;;;;;;;3.28;2.97;;;23.50;99.90;;;;;;5024287;28;21121;-67
2023/07/16 06:04:37;;;;;;;3.03;2.80;;;23.50;99.90;;;;;;5004127;28;20282;-68
2023/07/16 06:07:07;;;;;;;2.75;2.50;;;23.50;99.90;;;;;;5030776;28;20261;-67
2023/07/16 06:09:34;;;;;;;2.78;2.58;;;23.50;99.90;;;;;;5032369;28;20230;-66
2023/07/16 06:12:01;;;;;;;4.35;3.22;;;23.50;99.90;;;;;;5026792;28;20439;-66
2023/07/16 06:14:28;;;;;;;3.88;3.25;;;23.50;99.90;;;;;;5016387;28;20198;-66
2023/07/16 06:16:55;;;;;;;2.80;2.60;;;23.50;99.90;;;;;;5030780;28;20206;-66
2023/07/16 06:19:22;;;;;;;4.10;3.72;;;23.60;99.90;;;;;;5028700;28;20245;-66
2023/07/16 06:21:49;;;;;;;3.97;3.67;;;23.70;99.90;;;;;;5023542;28;20221;-67
2023/07/16 06:24:18;;;;;;;3.65;3.10;;;23.80;99.90;;;;;;5014449;28;20206;-66
2023/07/16 06:26:47;;;;;;;3.42;3.03;;;23.80;99.90;;;;;;5016045;28;20773;-67
2023/07/16 06:29:14;;;;;;;3.45;3.25;;;23.90;99.90;;;;;;5032356;28;20220;-66
2023/07/16 06:31:44;;;;;;;3.20;3.00;;;24.00;99.90;;;;;;5032764;28;20606;-65
2023/07/16 06:34:11;;;;;;;5.20;4.13;;;24.00;99.90;;;;;;5022904;28;22091;-66
2023/07/16 06:36:39;;;;;;;4.78;4.38;;;24.10;99.90;;;;;;5017752;28;20214;-66
2023/07/16 06:39:06;;;;;;;4.18;3.78;;;24.20;99.90;;;;;;5029246;28;20198;-66
2023/07/16 06:41:35;;;;;;;4.78;4.22;;;24.30;99.90;;;;;;5032423;28;20688;-66
2023/07/16 06:44:02;;;;;;;3.72;3.42;;;24.40;99.90;;;;;;5024215;28;20248;-67
2023/07/16 06:46:29;;;;;;;4.68;4.28;;;24.50;99.90;;;;;;5014843;28;20203;-66
2023/07/16 06:48:56;;;;;;;4.18;3.50;;;24.50;99.90;;;;;;5019938;28;20249;-67
2023/07/16 06:51:23;;;;;;;4.07;3.72;;;24.60;99.90;;;;;;5031950;28;20298;-67
2023/07/16 06:53:50;;;;;;;4.20;3.80;;;24.70;99.90;;;;;;5031251;28;20571;-66
2023/07/16 06:56:17;;;;;;;4.22;3.72;;;24.80;99.90;;;;;;5026314;28;20202;-64
2023/07/16 06:58:46;;;;;;;5.28;3.90;;;24.90;99.90;;;;;;5027623;28;20199;-66
2023/07/16 07:01:13;;;;;;;6.45;4.20;;;25.00;99.90;;;;;;5023986;28;20679;-67
2023/07/16 07:03:40;;;;;;;4.28;3.90;;;25.00;99.90;;;;;;5014627;28;20744;-66
2023/07/16 07:06:07;;;;;;;4.50;4.10;;;25.10;99.90;;;;;;5016724;28;20236;-67
2023/07/16 07:08:34;;;;;;;4.47;4.07;;;25.20;99.90;;;;;;5030561;28;20244;-66
2023/07/16 07:11:01;;;;;;;4.32;3.92;;;25.30;99.90;;;;;;5013766;28;20237;-67
2023/07/16 07:13:29;;;;;;;4.35;4.00;;;25.40;99.90;;;;;;5001297;28;20211;-67
2023/07/16 07:15:57;;;;;;;6.80;3.45;;;25.50;99.90;;;;;;5015051;28;20199;-67
2023/07/16 07:18:25;;;;;;;3.85;3.60;;;25.60;99.90;;;;;;5013415;28;20674;-65
2023/07/16 07:20:52;;;;;;;3.20;3.00;;;25.70;99.90;;;;;;5021367;28;20201;-66
2023/07/16 07:23:19;;;;;;;2.70;2.50;;;25.80;99.90;;;;;;5030414;28;20655;-67
2023/07/16 07:25:50;;;;;;;2.70;2.60;;;25.90;99.90;;;;;;5031352;28;20271;-66
2023/07/16 07:28:17;;;;;;;2.50;2.40;;;25.90;99.90;;;;;;5001541;28;20278;-66
2023/07/16 07:30:45;;;;;;;3.00;2.80;;;25.90;99.90;;;;;;5030305;28;20287;-65
2023/07/16 07:33:14;;;;;;;3.40;2.72;;;26.00;99.90;;;;;;5029078;28;20237;-66
2023/07/16 07:35:41;;;;;;;3.78;2.40;;;26.00;99.90;;;;;;5002295;28;20199;-65
2023/07/16 07:38:11;;;;;;;3.00;2.80;;;26.10;99.60;;;;;;5021566;28;20504;-65
2023/07/16 07:40:38;;;;;;;2.80;2.60;;;26.20;99.10;;;;;;5031879;28;20190;-67
2023/07/16 07:43:07;;;;;;;3.00;2.80;;;26.30;98.10;;;;;;5029707;28;20249;-65
2023/07/16 07:45:34;;;;;;;2.45;2.35;;;26.40;97.20;;;;;;5015875;28;20202;-65
2023/07/16 07:48:01;;;;;;;3.28;2.95;;;26.60;97.00;;;;;;5025605;28;20211;-66
2023/07/16 07:50:30;;;;;;;3.05;2.85;;;26.70;96.40;;;;;;5031655;28;20605;-66
2023/07/16 07:52:57;;;;;;;2.88;2.67;;;26.80;96.00;;;;;;5013775;28;20207;-66
2023/07/16 07:55:24;;;;;;;2.28;2.17;;;26.90;95.80;;;;;;5025189;28;20206;-64
2023/07/16 07:57:51;;;;;;;4.43;2.65;;;26.90;95.50;;;;;;5029653;28;20237;-65
2023/07/16 08:00:18;;;;;;;2.60;2.40;;;27.00;94.90;;;;;;5011512;28;20206;-65
2023/07/16 08:02:45;;;;;;;2.45;2.35;;;27.10;94.70;;;;;;5015069;28;20214;-65
2023/07/16 08:05:12;;;;;;;5.93;3.30;;;27.10;94.50;;;;;;5030257;28;20535;-66
2023/07/16 08:07:41;;;;;;;2.80;2.60;;;27.20;94.20;;;;;;5028750;28;20203;-66
2023/07/16 08:10:08;;;;;;;3.30;3.10;;;27.30;93.90;;;;;;5004309;28;20226;-65
2023/07/16 08:12:35;;;;;;;2.95;2.75;;;27.40;93.70;;;;;;5019724;28;20214;-66
2023/07/16 08:15:03;;;;;;;2.92;2.72;;;27.50;93.60;;;;;;5029851;28;20194;-65
2023/07/16 08:17:30;;;;;;;2.75;2.55;;;27.50;93.40;;;;;;5011415;28;20618;-65
2023/07/16 08:19:57;;;;;;;2.60;2.40;;;27.60;93.00;;;;;;5015724;28;20222;-66
2023/07/16 08:22:24;;;;;;;2.03;1.92;;;27.70;92.90;;;;;;5017595;28;20191;-67
2023/07/16 08:24:53;;;;;;;2.05;1.95;;;27.80;92.80;;;;;;5012533;28;20282;-66
2023/07/16 08:27:20;;;;;;;2.28;2.17;;;27.80;92.60;;;;;;5018147;28;20190;-65
2023/07/16 08:29:47;;;;;;;1.90;1.80;;;27.90;92.50;;;;;;5025648;28;20203;-66
2023/07/16 08:32:14;;;;;;;2.33;2.20;;;28.00;92.60;;;;;;5029234;28;20445;-66
2023/07/16 08:34:41;;;;;;;2.00;1.90;;;28.00;92.50;;;;;;5028952;28;20264;-65
2023/07/16 08:37:08;;;;;;;1.75;1.65;;;28.10;92.40;;;;;;5017378;28;20194;-66
2023/07/16 08:39:35;;;;;;;1.30;1.20;;;28.20;92.40;;;;;;5029651;28;20191;-65
2023/07/16 08:42:05;;;;;;;1.65;1.58;;;28.20;92.30;;;;;;5029369;28;20218;-65
2023/07/16 08:44:40;;;;;;;1.45;1.45;;;28.20;92.30;;;;;;5020703;28;22672;-65
2023/07/16 08:47:07;;;;;;;1.73;1.63;;;28.30;92.20;;;;;;5024640;28;20305;-65
2023/07/16 08:49:35;;;;;;;1.30;1.30;;;28.30;92.10;;;;;;5029146;28;20538;-66
2023/07/16 08:52:03;;;;;;;1.48;1.48;;;28.30;92.00;;;;;;5024646;28;20207;-66
2023/07/16 08:54:30;;;;;;;2.20;1.52;;;28.40;92.00;;;;;;5014820;28;20201;-66
2023/07/16 08:56:59;;;;;;;1.35;1.35;;;28.40;92.00;;;;;;5027447;28;20735;-65
2023/07/16 08:59:28;;;;;;;1.48;1.48;;;28.40;91.90;;;;;;5029473;28;20201;-65
2023/07/16 09:01:56;;;;;;;2.25;2.10;;;28.50;91.90;;;;;;5023647;28;20237;-66
2023/07/16 09:04:24;;;;;;;1.90;1.77;;;28.50;91.70;;;;;;5014259;28;20195;-66
2023/07/16 09:06:51;;;;;;;1.77;1.67;;;28.50;91.70;;;;;;5024558;28;20225;-66
2023/07/16 09:09:22;;;;;;;2.03;1.85;;;28.50;91.70;;;;;;5029043;28;20198;-67
2023/07/16 09:11:50;;;;;;;1.50;1.40;;;28.50;91.80;;;;;;5024597;28;20207;-65
2023/07/16 09:14:19;;;;;;;1.38;1.38;;;28.50;91.80;;;;;;5018313;28;20198;-66
2023/07/16 09:16:50;;;;;;;1.52;1.52;;;28.60;91.80;;;;;;5029793;28;20205;-65
2023/07/16 09:19:18;;;;;;;1.35;1.35;;;28.60;91.80;;;;;;5015157;28;20226;-67
2023/07/16 09:21:48;;;;;;;1.30;1.30;;;28.60;91.80;;;;;;5012886;28;20199;-65
2023/07/16 09:24:15;;;;;;;1.67;1.58;;;28.60;91.80;;;;;;5006486;28;20203;-66
2023/07/16 09:26:51;;;;;;;1.58;1.48;;;28.60;91.90;;;;;;5029574;28;20210;-66
2023/07/16 09:29:18;;;;;;;1.30;1.30;;;28.50;92.10;;;;;;5025398;28;20618;-67
2023/07/16 09:31:57;;;;;;;1.10;1.10;;;28.50;92.20;;;;;;5012876;28;20214;-66
2023/07/16 09:34:27;;;;;;;1.27;1.17;;;28.40;92.30;;;;;;5016205;28;20545;-66
2023/07/16 09:36:54;;;;;;;1.17;1.17;;;28.30;92.30;;;;;;5011023;28;20203;-67
2023/07/16 09:39:23;;;;;;;1.25;1.25;;;28.20;92.40;;;;;;5029654;28;20628;-66
2023/07/16 09:41:50;;;;;;;1.73;1.40;;;28.20;92.50;;;;;;5013503;28;20198;-65
2023/07/16 09:44:19;;;;;;;1.00;1.00;;;28.10;92.60;;;;;;5009956;28;20195;-65
2023/07/16 09:46:47;;;;;;;1.15;1.15;;;28.10;92.60;;;;;;5028744;28;20206;-65
2023/07/16 09:49:16;;;;;;;1.00;1.00;;;28.00;92.70;;;;;;5022890;28;20201;-66
2023/07/16 09:51:44;;;;;;;0.93;0.93;;;27.90;92.70;;;;;;5025656;28;20242;-66
2023/07/16 09:54:14;;;;;;;1.10;1.10;;;27.90;92.80;;;;;;5012231;28;20226;-66
2023/07/16 09:56:45;;;;;;;1.30;1.30;;;27.80;92.90;;;;;;5011424;28;20199;-66
2023/07/16 09:59:16;;;;;;;1.77;1.60;;;27.80;92.80;;;;;;5016668;28;20198;-66
2023/07/16 10:01:43;;;;;;;1.35;1.35;;;27.80;92.60;;;;;;5027706;28;20527;-66
2023/07/16 10:04:16;;;;;;;1.40;1.38;;;27.80;92.60;;;;;;5032350;28;20205;-66
2023/07/16 10:06:53;;;;;;;1.83;1.73;;;27.70;92.50;;;;;;5027343;28;20559;-66
2023/07/16 10:09:34;;;;;;;1.40;1.40;;;27.70;92.30;;;;;;5018477;28;20307;-66
2023/07/16 10:12:15;;;;;;;1.60;1.50;;;27.70;92.30;;;;;;5012819;28;20693;-66
2023/07/16 10:14:46;;;;;;;1.45;1.40;;;27.60;92.30;;;;;;5033539;28;20203;-66
2023/07/16 10:17:15;;;;;;;1.60;1.50;;;27.60;92.30;;;;;;5027419;28;20195;-66
2023/07/16 10:19:51;;;;;;;1.48;1.40;;;27.50;92.40;;;;;;5031622;28;20261;-66
2023/07/16 10:22:32;;;;;;;1.52;1.52;;;27.50;92.50;;;;;;5029412;28;20670;-66
2023/07/16 10:25:00;;;;;;;1.63;1.52;;;27.50;92.50;;;;;;5028481;28;20202;-66
2023/07/16 10:27:29;;;;;;;1.70;1.60;;;27.50;92.60;;;;;;5032055;28;20203;-66
2023/07/16 10:29:56;;;;;;;1.45;1.35;;;27.50;92.70;;;;;;5030046;28;20190;-65
2023/07/16 10:32:30;;;;;;;2.45;1.50;;;27.40;92.70;;;;;;5005913;28;20219;-65
2023/07/16 10:34:59;;;;;;;1.98;1.88;;;27.40;92.80;;;;;;5031090;28;20211;-65
2023/07/16 10:37:29;;;;;;;1.55;1.45;;;27.40;92.70;;;;;;5011600;28;20197;-65
2023/07/16 10:39:58;;;;;;;1.65;1.55;;;27.30;92.70;;;;;;5025627;28;20653;-67
2023/07/16 10:42:29;;;;;;;1.80;1.70;;;27.30;92.80;;;;;;5031590;28;20289;-67
2023/07/16 10:44:58;;;;;;;1.88;1.65;;;27.20;92.80;;;;;;5032307;28;20267;-66
2023/07/16 10:47:32;;;;;;;1.92;1.60;;;27.20;93.00;;;;;;4996017;28;20202;-65
2023/07/16 10:50:02;;;;;;;1.80;1.70;;;27.20;93.10;;;;;;5018357;28;20190;-66
2023/07/16 10:52:31;;;;;;;1.30;1.30;;;27.10;93.10;;;;;;5031619;28;20199;-67
2023/07/16 10:55:01;;;;;;;1.80;1.70;;;27.10;93.20;;;;;;5031584;28;20194;-66
2023/07/16 10:57:30;;;;;;;1.80;1.60;;;27.10;93.30;;;;;;5000762;28;20210;-65
2023/07/16 11:00:01;;;;;;;1.30;1.30;;;27.20;93.40;;;;;;5028798;28;20215;-66
2023/07/16 11:02:32;;;;;;;1.33;1.33;;;27.10;93.40;;;;;;5030031;28;20218;-65
2023/07/16 11:05:04;;;;;;;1.60;1.50;;;27.20;93.60;;;;;;5020431;28;20223;-67
2023/07/16 11:07:32;;;;;;;1.55;1.45;;;27.10;93.60;;;;;;5011182;28;20218;-66
2023/07/16 11:10:02;;;;;;;1.77;1.67;;;27.20;93.70;;;;;;4997415;28;20231;-67
2023/07/16 11:12:35;;;;;;;1.60;1.50;;;27.10;93.80;;;;;;5010938;28;20261;-66
2023/07/16 11:15:02;;;;;;;1.60;1.50;;;27.20;93.90;;;;;;5012580;28;20203;-67
2023/07/16 11:17:33;;;;;;;2.85;1.70;;;27.20;94.10;;;;;;5010630;28;20198;-67
2023/07/16 11:20:08;;;;;;;1.48;1.48;;;27.20;94.20;;;;;;5011727;28;20875;-66
2023/07/16 11:22:40;;;;;;;1.60;1.50;;;27.20;94.30;;;;;;5011334;28;20201;-67
2023/07/16 11:25:14;;;;;;;1.67;1.67;;;27.20;94.70;;;;;;5010666;28;20191;-66
2023/07/16 11:27:43;;;;;;;1.35;1.35;;;27.20;94.40;;;;;;5010679;28;20198;-67
2023/07/16 11:30:11;;;;;;;1.40;1.40;;;27.20;94.50;;;;;;5011364;28;20203;-67
2023/07/16 11:32:44;;;;;;;1.70;1.60;;;27.20;94.40;;;;;;5010868;28;20210;-66
2023/07/16 11:35:17;;;;;;;2.00;1.90;;;27.30;94.50;;;;;;5011114;28;20194;-66
2023/07/16 11:37:45;;;;;;;1.55;1.52;;;27.30;94.50;;;;;;5010787;28;20305;-67
2023/07/16 11:40:18;;;;;;;3.38;2.30;;;27.50;94.50;;;;;;5009789;28;20203;-67
2023/07/16 11:42:48;;;;;;;4.82;1.90;;;27.40;94.80;;;;;;5012221;28;20198;-67
2023/07/16 11:45:20;;;;;;;1.75;1.65;;;27.40;94.40;;;;;;5012391;28;20203;-67
2023/07/16 11:47:47;;;;;;;1.45;1.45;;;27.40;94.40;;;;;;5008402;28;20592;-65
2023/07/16 11:50:16;;;;;;;1.50;1.50;;;27.40;94.40;;;;;;5024011;28;20210;-68
2023/07/16 11:56:15;;;;;;;1.35;1.25;;;27.40;94.50;;;;;;4989758;28;20224;-67
2023/07/16 11:59:26;;;;;;;1.60;1.42;;;27.40;94.60;;;;;;5010745;28;20683;-67
2023/07/16 12:02:18;;;;;;;1.52;1.52;;;27.40;94.70;;;;;;4994931;28;20307;-67
2023/07/16 12:19:43;;;;;;;1.63;1.52;;;27.90;95.10;;;;;;5010338;28;20282;-67
2023/07/16 12:22:14;;;;;;;1.48;1.38;;;27.90;95.20;;;;;;5010542;28;20520;-67
2023/07/16 12:24:42;;;;;;;1.55;1.48;;;27.90;95.00;;;;;;5007917;28;20284;-66
2023/07/16 12:27:09;;;;;;;2.75;2.10;;;27.80;94.80;;;;;;5008574;28;20567;-66
2023/07/16 12:29:47;;;;;;;1.80;1.70;;;27.70;94.70;;;;;;5009856;28;20210;-66
2023/07/16 12:32:15;;;;;;;2.00;1.90;;;27.60;94.90;;;;;;5010365;28;20608;-67
2023/07/16 12:34:42;;;;;;;2.10;2.00;;;27.60;95.00;;;;;;5009277;28;20199;-66
2023/07/16 12:37:19;;;;;;;2.88;2.20;;;27.60;95.10;;;;;;4995076;28;20203;-70
2023/07/16 12:39:48;;;;;;;2.10;1.92;;;27.50;95.30;;;;;;5007840;28;20226;-67
2023/07/16 12:42:18;;;;;;;3.97;2.58;;;27.50;95.50;;;;;;5009862;28;20260;-66
2023/07/16 12:44:46;;;;;;;2.72;2.25;;;27.50;95.80;;;;;;5009447;28;20218;-66
2023/07/16 12:47:16;;;;;;;2.20;2.10;;;27.50;96.10;;;;;;5020489;28;20190;-66
2023/07/16 12:49:45;;;;;;;2.50;2.30;;;27.40;96.30;;;;;;5025181;28;20187;-66
2023/07/16 12:52:14;;;;;;;2.10;2.00;;;27.50;96.70;;;;;;5010058;28;20224;-66
2023/07/16 12:54:41;;;;;;;2.47;2.20;;;27.40;96.80;;;;;;4994722;28;20222;-67
2023/07/16 12:57:09;;;;;;;2.40;2.20;;;27.40;97.10;;;;;;4991996;28;20198;-68
2023/07/16 12:59:36;;;;;;;1.90;1.80;;;27.30;97.20;;;;;;5023892;28;20673;-67
2023/07/16 13:02:11;;;;;;;2.47;2.30;;;27.30;97.20;;;;;;5024668;28;20277;-67
2023/07/16 13:04:38;;;;;;;2.28;2.08;;;27.20;97.40;;;;;;5020659;28;20577;-67
2023/07/16 13:07:11;;;;;;;2.97;2.03;;;27.20;97.50;;;;;;5021814;28;20199;-67
2023/07/16 13:09:38;;;;;;;2.53;2.28;;;27.20;97.50;;;;;;5026923;28;20201;-67
2023/07/16 13:12:07;;;;;;;2.67;1.60;;;27.40;97.60;;;;;;5018521;28;20241;-66
2023/07/16 13:14:35;;;;;;;2.30;2.10;;;27.40;97.60;;;;;;5018421;28;20254;-67